sensor_id;sensor_type;location;lat;lon;timestamp;pressure;altitude;pressure_sealevel;temperature;humidity
11523;BME280;40093;43.224;27.910;2023-02-04T00:02:26;100395.81;;;4.46;100.00
11523;BME280;40093;43.224;27.910;2023-02-04T00:04:55;100406.13;;;4.40;100.00
11523;BME280;40093;43.224;27.910;2023-02-04T00:07:22;100402.81;;;4.35;100.00
11523;BME280;40093;43.224;27.910;2023-02-04T00:09:48;100406.28;;;4.23;100.00
11523;BME280;40093;43.224;27.910;2023-02-04T00:12:15;100399.38;;;4.26;100.00
11523;BME280;40093;43.224;27.910;2023-02-04T00:14:42;100402.69;;;4.31;99.77
11523;BME280;40093;43.224;27.910;2023-02-04T00:17:09;100392.59;;;4.32;98.86
11523;BME280;40093;43.224;27.910;2023-02-04T00:19:38;100381.66;;;4.20;97.60
11523;BME280;40093;43.224;27.910;2023-02-04T00:22:07;100384.50;;;4.23;96.12
11523;BME280;40093;43.224;27.910;2023-02-04T00:24:34;100378.94;;;4.20;94.93
11523;BME280;40093;43.224;27.910;2023-02-04T00:27:02;100373.00;;;4.06;94.09
11523;BME280;40093;43.224;27.910;2023-02-04T00:29:29;100377.75;;;4.09;92.78
11523;BME280;40093;43.224;27.910;2023-02-04T00:31:56;100373.25;;;4.13;91.57
11523;BME280;40093;43.224;27.910;2023-02-04T00:34:23;100368.38;;;4.06;91.92
11523;BME280;40093;43.224;27.910;2023-02-04T00:36:50;100356.91;;;4.13;91.98
11523;BME280;40093;43.224;27.910;2023-02-04T00:39:18;100359.97;;;4.11;91.63
11523;BME280;40093;43.224;27.910;2023-02-04T00:41:45;100361.00;;;4.19;91.52
11523;BME280;40093;43.224;27.910;2023-02-04T00:44:12;100360.13;;;4.27;91.25
11523;BME280;40093;43.224;27.910;2023-02-04T00:46:39;100353.34;;;4.33;89.34
11523;BME280;40093;43.224;27.910;2023-02-04T00:49:07;100347.88;;;4.33;87.87
11523;BME280;40093;43.224;27.910;2023-02-04T00:51:36;100344.69;;;4.31;84.56
11523;BME280;40093;43.224;27.910;2023-02-04T00:54:03;100346.75;;;4.34;85.08
11523;BME280;40093;43.224;27.910;2023-02-04T00:56:32;100346.72;;;4.22;82.51
11523;BME280;40093;43.224;27.910;2023-02-04T00:58:59;100340.66;;;4.04;84.11
11523;BME280;40093;43.224;27.910;2023-02-04T01:01:26;100332.09;;;4.26;83.15
11523;BME280;40093;43.224;27.910;2023-02-04T01:03:53;100324.03;;;4.30;82.65
11523;BME280;40093;43.224;27.910;2023-02-04T01:06:19;100314.19;;;4.37;81.67
11523;BME280;40093;43.224;27.910;2023-02-04T01:08:46;100316.69;;;4.54;81.89
11523;BME280;40093;43.224;27.910;2023-02-04T01:11:13;100321.81;;;4.56;81.79
11523;BME280;40093;43.224;27.910;2023-02-04T01:13:42;100322.81;;;4.63;79.87
11523;BME280;40093;43.224;27.910;2023-02-04T01:16:09;100317.59;;;4.82;79.33
11523;BME280;40093;43.224;27.910;2023-02-04T01:18:36;100320.91;;;4.76;78.09
11523;BME280;40093;43.224;27.910;2023-02-04T01:21:04;100309.28;;;4.90;77.94
11523;BME280;40093;43.224;27.910;2023-02-04T01:23:31;100308.13;;;5.03;78.86
11523;BME280;40093;43.224;27.910;2023-02-04T01:25:58;100300.63;;;5.12;79.36
11523;BME280;40093;43.224;27.910;2023-02-04T01:28:25;100294.50;;;4.91;78.66
11523;BME280;40093;43.224;27.910;2023-02-04T01:30:53;100295.19;;;5.00;78.80
11523;BME280;40093;43.224;27.910;2023-02-04T01:33:21;100285.38;;;5.11;78.63
11523;BME280;40093;43.224;27.910;2023-02-04T01:35:47;100291.19;;;5.22;77.98
11523;BME280;40093;43.224;27.910;2023-02-04T01:38:15;100285.56;;;5.30;77.77
11523;BME280;40093;43.224;27.910;2023-02-04T01:40:42;100275.31;;;5.39;76.70
11523;BME280;40093;43.224;27.910;2023-02-04T01:43:09;100282.47;;;5.44;76.72
11523;BME280;40093;43.224;27.910;2023-02-04T01:45:37;100275.88;;;5.45;77.23
11523;BME280;40093;43.224;27.910;2023-02-04T01:48:06;100273.25;;;5.48;77.02
11523;BME280;40093;43.224;27.910;2023-02-04T01:50:34;100278.09;;;5.27;77.32
11523;BME280;40093;43.224;27.910;2023-02-04T01:53:01;100269.69;;;5.20;78.32
11523;BME280;40093;43.224;27.910;2023-02-04T01:55:30;100260.22;;;5.30;77.51
11523;BME280;40093;43.224;27.910;2023-02-04T01:57:57;100248.06;;;4.88;75.16
11523;BME280;40093;43.224;27.910;2023-02-04T02:00:26;100273.34;;;5.12;76.56
11523;BME280;40093;43.224;27.910;2023-02-04T02:02:54;100250.97;;;5.07;76.50
11523;BME280;40093;43.224;27.910;2023-02-04T02:05:26;100249.19;;;4.87;78.84
11523;BME280;40093;43.224;27.910;2023-02-04T02:07:55;100243.38;;;5.00;78.68
11523;BME280;40093;43.224;27.910;2023-02-04T02:10:23;100253.09;;;5.13;79.08
11523;BME280;40093;43.224;27.910;2023-02-04T02:12:50;100251.06;;;5.10;77.81
11523;BME280;40093;43.224;27.910;2023-02-04T02:15:17;100248.03;;;5.00;77.55
11523;BME280;40093;43.224;27.910;2023-02-04T02:17:45;100239.94;;;5.03;77.16
11523;BME280;40093;43.224;27.910;2023-02-04T02:20:15;100250.47;;;5.17;78.08
11523;BME280;40093;43.224;27.910;2023-02-04T02:22:54;100235.00;;;5.21;76.38
11523;BME280;40093;43.224;27.910;2023-02-04T02:25:25;100234.22;;;5.20;75.50
11523;BME280;40093;43.224;27.910;2023-02-04T02:27:52;100231.72;;;5.15;75.69
11523;BME280;40093;43.224;27.910;2023-02-04T02:30:20;100236.06;;;5.16;75.36
11523;BME280;40093;43.224;27.910;2023-02-04T02:32:49;100226.56;;;4.98;76.85
11523;BME280;40093;43.224;27.910;2023-02-04T02:35:17;100226.09;;;5.08;76.54
11523;BME280;40093;43.224;27.910;2023-02-04T02:37:44;100224.13;;;5.09;76.51
11523;BME280;40093;43.224;27.910;2023-02-04T02:40:12;100221.53;;;5.12;77.91
11523;BME280;40093;43.224;27.910;2023-02-04T02:42:41;100223.66;;;5.19;78.22
11523;BME280;40093;43.224;27.910;2023-02-04T02:45:14;100222.88;;;5.18;78.42
11523;BME280;40093;43.224;27.910;2023-02-04T02:47:45;100211.69;;;5.23;79.24
11523;BME280;40093;43.224;27.910;2023-02-04T02:50:15;100207.78;;;5.36;79.66
11523;BME280;40093;43.224;27.910;2023-02-04T02:52:42;100199.78;;;5.43;79.57
11523;BME280;40093;43.224;27.910;2023-02-04T02:55:13;100195.91;;;5.44;79.86
11523;BME280;40093;43.224;27.910;2023-02-04T02:57:43;100196.34;;;5.46;79.88
11523;BME280;40093;43.224;27.910;2023-02-04T03:00:15;100186.78;;;5.52;79.69
11523;BME280;40093;43.224;27.910;2023-02-04T03:02:44;100177.56;;;5.57;79.92
11523;BME280;40093;43.224;27.910;2023-02-04T03:05:11;100181.66;;;5.51;79.28
11523;BME280;40093;43.224;27.910;2023-02-04T03:07:38;100164.25;;;5.55;79.36
11523;BME280;40093;43.224;27.910;2023-02-04T03:10:06;100168.31;;;5.61;79.21
11523;BME280;40093;43.224;27.910;2023-02-04T03:12:33;100161.81;;;5.66;79.83
11523;BME280;40093;43.224;27.910;2023-02-04T03:15:02;100157.22;;;5.70;80.37
11523;BME280;40093;43.224;27.910;2023-02-04T03:17:30;100144.63;;;5.65;80.33
11523;BME280;40093;43.224;27.910;2023-02-04T03:19:58;100150.59;;;5.55;79.44
11523;BME280;40093;43.224;27.910;2023-02-04T03:22:26;100157.16;;;5.23;76.43
11523;BME280;40093;43.224;27.910;2023-02-04T03:24:54;100151.59;;;4.92;78.83
11523;BME280;40093;43.224;27.910;2023-02-04T03:27:23;100165.03;;;4.85;81.02
11523;BME280;40093;43.224;27.910;2023-02-04T03:29:50;100151.31;;;4.82;82.21
11523;BME280;40093;43.224;27.910;2023-02-04T03:32:19;100156.41;;;4.83;82.38
11523;BME280;40093;43.224;27.910;2023-02-04T03:34:45;100153.81;;;4.75;83.63
11523;BME280;40093;43.224;27.910;2023-02-04T03:37:12;100153.22;;;4.81;83.84
11523;BME280;40093;43.224;27.910;2023-02-04T03:39:39;100154.59;;;4.87;84.13
11523;BME280;40093;43.224;27.910;2023-02-04T03:42:06;100157.06;;;4.92;84.49
11523;BME280;40093;43.224;27.910;2023-02-04T03:44:33;100147.94;;;5.00;84.97
11523;BME280;40093;43.224;27.910;2023-02-04T03:47:00;100146.56;;;5.06;84.39
11523;BME280;40093;43.224;27.910;2023-02-04T03:49:28;100144.44;;;4.88;85.66
11523;BME280;40093;43.224;27.910;2023-02-04T03:51:56;100133.00;;;4.82;87.71
11523;BME280;40093;43.224;27.910;2023-02-04T03:54:23;100129.00;;;4.65;88.88
11523;BME280;40093;43.224;27.910;2023-02-04T03:56:50;100124.22;;;4.62;90.75
11523;BME280;40093;43.224;27.910;2023-02-04T03:59:17;100126.19;;;4.49;92.13
11523;BME280;40093;43.224;27.910;2023-02-04T04:01:44;100114.28;;;4.42;94.66
11523;BME280;40093;43.224;27.910;2023-02-04T04:04:11;100111.09;;;4.40;97.77
11523;BME280;40093;43.224;27.910;2023-02-04T04:06:39;100111.38;;;4.23;100.00
11523;BME280;40093;43.224;27.910;2023-02-04T04:09:06;100105.56;;;4.24;100.00
11523;BME280;40093;43.224;27.910;2023-02-04T04:11:32;100097.75;;;4.35;100.00
11523;BME280;40093;43.224;27.910;2023-02-04T04:13:59;100091.66;;;4.53;100.00
11523;BME280;40093;43.224;27.910;2023-02-04T04:16:27;100088.34;;;4.60;100.00
11523;BME280;40093;43.224;27.910;2023-02-04T04:18:53;100077.66;;;4.67;100.00
11523;BME280;40093;43.224;27.910;2023-02-04T04:21:21;100076.47;;;4.52;100.00
11523;BME280;40093;43.224;27.910;2023-02-04T04:23:49;100068.22;;;4.64;100.00
11523;BME280;40093;43.224;27.910;2023-02-04T04:26:16;100059.28;;;4.64;100.00
11523;BME280;40093;43.224;27.910;2023-02-04T04:28:43;100057.00;;;4.66;100.00
11523;BME280;40093;43.224;27.910;2023-02-04T04:31:10;100056.03;;;4.73;100.00
11523;BME280;40093;43.224;27.910;2023-02-04T04:33:37;100040.03;;;4.72;100.00
11523;BME280;40093;43.224;27.910;2023-02-04T04:36:06;100044.00;;;4.75;100.00
11523;BME280;40093;43.224;27.910;2023-02-04T04:38:33;100042.16;;;4.78;100.00
11523;BME280;40093;43.224;27.910;2023-02-04T04:41:01;100031.38;;;4.82;100.00
11523;BME280;40093;43.224;27.910;2023-02-04T04:43:29;100025.38;;;4.77;100.00
11523;BME280;40093;43.224;27.910;2023-02-04T04:45:55;100025.72;;;4.75;100.00
11523;BME280;40093;43.224;27.910;2023-02-04T04:48:22;100030.19;;;4.68;100.00
11523;BME280;40093;43.224;27.910;2023-02-04T04:50:50;100033.13;;;4.47;100.00
11523;BME280;40093;43.224;27.910;2023-02-04T04:53:16;100020.56;;;4.31;100.00
11523;BME280;40093;43.224;27.910;2023-02-04T04:55:43;100020.53;;;4.43;100.00
11523;BME280;40093;43.224;27.910;2023-02-04T04:58:12;100021.56;;;4.38;100.00
11523;BME280;40093;43.224;27.910;2023-02-04T05:00:45;100029.00;;;4.53;100.00
11523;BME280;40093;43.224;27.910;2023-02-04T05:03:13;100014.78;;;4.60;100.00
11523;BME280;40093;43.224;27.910;2023-02-04T05:05:39;100008.78;;;4.54;100.00
11523;BME280;40093;43.224;27.910;2023-02-04T05:08:07;100020.75;;;4.65;100.00
11523;BME280;40093;43.224;27.910;2023-02-04T05:10:37;100022.66;;;4.77;100.00
11523;BME280;40093;43.224;27.910;2023-02-04T05:13:04;100015.53;;;4.87;100.00
11523;BME280;40093;43.224;27.910;2023-02-04T05:15:33;100013.59;;;4.88;100.00
11523;BME280;40093;43.224;27.910;2023-02-04T05:18:00;100013.69;;;4.91;100.00
11523;BME280;40093;43.224;27.910;2023-02-04T05:20:27;100020.13;;;4.99;100.00
11523;BME280;40093;43.224;27.910;2023-02-04T05:22:54;100007.91;;;5.08;100.00
11523;BME280;40093;43.224;27.910;2023-02-04T05:25:25;100009.50;;;5.09;100.00
11523;BME280;40093;43.224;27.910;2023-02-04T05:27:52;100009.31;;;5.02;100.00
11523;BME280;40093;43.224;27.910;2023-02-04T05:30:20;100004.81;;;5.10;100.00
11523;BME280;40093;43.224;27.910;2023-02-04T05:32:48;100007.41;;;5.18;100.00
11523;BME280;40093;43.224;27.910;2023-02-04T05:35:16;100006.97;;;5.16;100.00
11523;BME280;40093;43.224;27.910;2023-02-04T05:37:43;100004.66;;;5.03;100.00
11523;BME280;40093;43.224;27.910;2023-02-04T05:40:12;99996.13;;;5.04;100.00
11523;BME280;40093;43.224;27.910;2023-02-04T05:42:38;100001.84;;;5.15;100.00
11523;BME280;40093;43.224;27.910;2023-02-04T05:45:08;100000.19;;;5.10;100.00
11523;BME280;40093;43.224;27.910;2023-02-04T05:47:39;99999.31;;;5.06;100.00
11523;BME280;40093;43.224;27.910;2023-02-04T05:50:08;99999.91;;;4.84;100.00
11523;BME280;40093;43.224;27.910;2023-02-04T05:52:35;99998.81;;;4.89;100.00
11523;BME280;40093;43.224;27.910;2023-02-04T05:55:02;99995.94;;;4.82;100.00
11523;BME280;40093;43.224;27.910;2023-02-04T05:57:29;99995.41;;;4.77;100.00
11523;BME280;40093;43.224;27.910;2023-02-04T05:59:56;99993.91;;;4.79;100.00
11523;BME280;40093;43.224;27.910;2023-02-04T06:02:23;99983.00;;;4.94;100.00
11523;BME280;40093;43.224;27.910;2023-02-04T06:04:50;99994.53;;;5.03;100.00
11523;BME280;40093;43.224;27.910;2023-02-04T06:07:18;99992.09;;;5.14;100.00
11523;BME280;40093;43.224;27.910;2023-02-04T06:09:46;99989.69;;;5.12;100.00
11523;BME280;40093;43.224;27.910;2023-02-04T06:12:13;99983.28;;;5.20;100.00
11523;BME280;40093;43.224;27.910;2023-02-04T06:14:40;99991.72;;;5.15;100.00
11523;BME280;40093;43.224;27.910;2023-02-04T06:17:07;99994.44;;;5.00;100.00
11523;BME280;40093;43.224;27.910;2023-02-04T06:19:33;99987.91;;;4.89;100.00
11523;BME280;40093;43.224;27.910;2023-02-04T06:22:02;99989.78;;;4.85;100.00
11523;BME280;40093;43.224;27.910;2023-02-04T06:24:30;99986.78;;;5.05;100.00
11523;BME280;40093;43.224;27.910;2023-02-04T06:26:57;99983.09;;;5.13;100.00
11523;BME280;40093;43.224;27.910;2023-02-04T06:29:24;99981.16;;;4.98;100.00
11523;BME280;40093;43.224;27.910;2023-02-04T06:31:51;99980.56;;;5.05;100.00
11523;BME280;40093;43.224;27.910;2023-02-04T06:34:18;99977.56;;;5.10;100.00
11523;BME280;40093;43.224;27.910;2023-02-04T06:36:45;99982.22;;;5.09;100.00
11523;BME280;40093;43.224;27.910;2023-02-04T06:39:13;99981.44;;;5.09;100.00
11523;BME280;40093;43.224;27.910;2023-02-04T06:41:41;99978.59;;;5.21;100.00
11523;BME280;40093;43.224;27.910;2023-02-04T06:44:08;99975.81;;;5.17;100.00
11523;BME280;40093;43.224;27.910;2023-02-04T06:46:35;99983.81;;;5.10;100.00
11523;BME280;40093;43.224;27.910;2023-02-04T06:49:01;99982.56;;;5.23;100.00
11523;BME280;40093;43.224;27.910;2023-02-04T06:51:28;99977.41;;;5.03;100.00
11523;BME280;40093;43.224;27.910;2023-02-04T06:53:55;99972.72;;;5.03;100.00
11523;BME280;40093;43.224;27.910;2023-02-04T06:56:23;99970.97;;;4.95;100.00
11523;BME280;40093;43.224;27.910;2023-02-04T06:58:52;99973.25;;;4.93;100.00
11523;BME280;40093;43.224;27.910;2023-02-04T07:01:19;99966.59;;;5.06;100.00
11523;BME280;40093;43.224;27.910;2023-02-04T07:03:46;99973.94;;;5.21;100.00
11523;BME280;40093;43.224;27.910;2023-02-04T07:06:13;99964.28;;;5.08;100.00
11523;BME280;40093;43.224;27.910;2023-02-04T07:08:40;99963.91;;;5.10;100.00
11523;BME280;40093;43.224;27.910;2023-02-04T07:11:07;99953.81;;;5.26;100.00
11523;BME280;40093;43.224;27.910;2023-02-04T07:13:34;99954.03;;;5.36;100.00
11523;BME280;40093;43.224;27.910;2023-02-04T07:16:03;99963.13;;;5.40;100.00
11523;BME280;40093;43.224;27.910;2023-02-04T07:18:30;99960.84;;;5.27;100.00
11523;BME280;40093;43.224;27.910;2023-02-04T07:20:57;99959.59;;;5.40;100.00
11523;BME280;40093;43.224;27.910;2023-02-04T07:23:25;99952.38;;;5.32;100.00
11523;BME280;40093;43.224;27.910;2023-02-04T07:25:53;99954.25;;;5.28;100.00
11523;BME280;40093;43.224;27.910;2023-02-04T07:28:24;99944.38;;;5.23;100.00
11523;BME280;40093;43.224;27.910;2023-02-04T07:30:52;99938.56;;;5.40;100.00
11523;BME280;40093;43.224;27.910;2023-02-04T07:33:22;99940.75;;;5.50;100.00
11523;BME280;40093;43.224;27.910;2023-02-04T07:35:49;99930.09;;;5.45;100.00
11523;BME280;40093;43.224;27.910;2023-02-04T07:38:16;99940.41;;;5.36;100.00
11523;BME280;40093;43.224;27.910;2023-02-04T07:40:43;99937.13;;;5.46;100.00
11523;BME280;40093;43.224;27.910;2023-02-04T07:43:10;99932.66;;;5.54;100.00
11523;BME280;40093;43.224;27.910;2023-02-04T07:45:37;99933.16;;;5.59;100.00
11523;BME280;40093;43.224;27.910;2023-02-04T07:48:05;99930.44;;;5.59;100.00
11523;BME280;40093;43.224;27.910;2023-02-04T07:50:33;99937.69;;;5.71;100.00
11523;BME280;40093;43.224;27.910;2023-02-04T07:53:00;99922.25;;;5.78;100.00
11523;BME280;40093;43.224;27.910;2023-02-04T07:55:28;99930.81;;;5.77;100.00
11523;BME280;40093;43.224;27.910;2023-02-04T07:57:55;99938.91;;;5.73;100.00
11523;BME280;40093;43.224;27.910;2023-02-04T08:00:22;99935.22;;;5.81;100.00
11523;BME280;40093;43.224;27.910;2023-02-04T08:02:49;99928.00;;;5.73;100.00
11523;BME280;40093;43.224;27.910;2023-02-04T08:05:18;99921.81;;;5.76;100.00
11523;BME280;40093;43.224;27.910;2023-02-04T08:07:46;99927.41;;;5.64;100.00
11523;BME280;40093;43.224;27.910;2023-02-04T08:10:13;99924.47;;;5.73;100.00
11523;BME280;40093;43.224;27.910;2023-02-04T08:12:40;99922.00;;;5.83;100.00
11523;BME280;40093;43.224;27.910;2023-02-04T08:15:08;99919.66;;;6.01;100.00
11523;BME280;40093;43.224;27.910;2023-02-04T08:17:35;99916.66;;;5.71;100.00
11523;BME280;40093;43.224;27.910;2023-02-04T08:20:03;99911.75;;;5.61;100.00
11523;BME280;40093;43.224;27.910;2023-02-04T08:22:33;99921.09;;;5.60;100.00
11523;BME280;40093;43.224;27.910;2023-02-04T08:25:02;99914.06;;;5.78;100.00
11523;BME280;40093;43.224;27.910;2023-02-04T08:27:29;99907.13;;;5.81;100.00
11523;BME280;40093;43.224;27.910;2023-02-04T08:29:56;99911.81;;;5.80;100.00
11523;BME280;40093;43.224;27.910;2023-02-04T08:32:24;99913.81;;;5.83;100.00
11523;BME280;40093;43.224;27.910;2023-02-04T08:34:52;99907.13;;;6.00;100.00
11523;BME280;40093;43.224;27.910;2023-02-04T08:37:19;99906.34;;;6.18;100.00
11523;BME280;40093;43.224;27.910;2023-02-04T08:39:47;99893.66;;;6.29;100.00
11523;BME280;40093;43.224;27.910;2023-02-04T08:42:16;99904.81;;;6.40;100.00
11523;BME280;40093;43.224;27.910;2023-02-04T08:44:44;99905.41;;;6.52;100.00
11523;BME280;40093;43.224;27.910;2023-02-04T08:47:11;99886.38;;;6.37;100.00
11523;BME280;40093;43.224;27.910;2023-02-04T08:49:39;99906.69;;;6.17;100.00
11523;BME280;40093;43.224;27.910;2023-02-04T08:52:07;99908.22;;;6.14;100.00
11523;BME280;40093;43.224;27.910;2023-02-04T08:54:34;99905.69;;;6.25;100.00
11523;BME280;40093;43.224;27.910;2023-02-04T08:57:02;99908.91;;;6.11;100.00
11523;BME280;40093;43.224;27.910;2023-02-04T08:59:30;99904.69;;;6.14;100.00
11523;BME280;40093;43.224;27.910;2023-02-04T09:01:58;99903.53;;;6.15;100.00
11523;BME280;40093;43.224;27.910;2023-02-04T09:04:25;99912.09;;;6.13;100.00
11523;BME280;40093;43.224;27.910;2023-02-04T09:06:53;99904.41;;;6.19;100.00
11523;BME280;40093;43.224;27.910;2023-02-04T09:09:20;99902.44;;;6.38;100.00
11523;BME280;40093;43.224;27.910;2023-02-04T09:11:49;99902.44;;;6.38;100.00
11523;BME280;40093;43.224;27.910;2023-02-04T09:14:16;99894.41;;;6.07;100.00
11523;BME280;40093;43.224;27.910;2023-02-04T09:16:44;99894.63;;;5.99;100.00
11523;BME280;40093;43.224;27.910;2023-02-04T09:19:13;99892.25;;;5.97;100.00
11523;BME280;40093;43.224;27.910;2023-02-04T09:21:43;99894.13;;;6.12;100.00
11523;BME280;40093;43.224;27.910;2023-02-04T09:24:10;99889.13;;;6.37;100.00
11523;BME280;40093;43.224;27.910;2023-02-04T09:26:37;99884.03;;;6.35;100.00
11523;BME280;40093;43.224;27.910;2023-02-04T09:29:04;99880.25;;;6.21;100.00
11523;BME280;40093;43.224;27.910;2023-02-04T09:31:31;99874.91;;;6.28;100.00
11523;BME280;40093;43.224;27.910;2023-02-04T09:33:59;99869.91;;;6.33;100.00
11523;BME280;40093;43.224;27.910;2023-02-04T09:36:27;99863.75;;;6.36;100.00
11523;BME280;40093;43.224;27.910;2023-02-04T09:38:57;99863.81;;;6.62;100.00
11523;BME280;40093;43.224;27.910;2023-02-04T09:41:24;99864.69;;;6.66;100.00
11523;BME280;40093;43.224;27.910;2023-02-04T09:43:51;99856.22;;;6.75;100.00
11523;BME280;40093;43.224;27.910;2023-02-04T09:46:19;99857.19;;;6.86;100.00
11523;BME280;40093;43.224;27.910;2023-02-04T09:48:47;99856.63;;;6.99;100.00
11523;BME280;40093;43.224;27.910;2023-02-04T09:51:19;99849.09;;;7.19;100.00
11523;BME280;40093;43.224;27.910;2023-02-04T09:53:47;99850.41;;;7.28;100.00
11523;BME280;40093;43.224;27.910;2023-02-04T09:56:15;99849.75;;;7.34;100.00
11523;BME280;40093;43.224;27.910;2023-02-04T09:58:43;99842.41;;;7.16;100.00
11523;BME280;40093;43.224;27.910;2023-02-04T10:01:14;99845.84;;;7.10;100.00
11523;BME280;40093;43.224;27.910;2023-02-04T10:03:43;99835.78;;;7.17;100.00
11523;BME280;40093;43.224;27.910;2023-02-04T10:06:13;99827.97;;;7.16;100.00
11523;BME280;40093;43.224;27.910;2023-02-04T10:08:42;99828.50;;;7.54;100.00
11523;BME280;40093;43.224;27.910;2023-02-04T10:11:11;99822.97;;;7.83;100.00
11523;BME280;40093;43.224;27.910;2023-02-04T10:13:41;99809.66;;;7.82;100.00
11523;BME280;40093;43.224;27.910;2023-02-04T10:16:13;99825.66;;;7.80;100.00
11523;BME280;40093;43.224;27.910;2023-02-04T10:18:41;99814.25;;;7.74;100.00
11523;BME280;40093;43.224;27.910;2023-02-04T10:21:14;99817.28;;;7.99;100.00
11523;BME280;40093;43.224;27.910;2023-02-04T10:23:45;99821.59;;;8.00;100.00
11523;BME280;40093;43.224;27.910;2023-02-04T10:26:15;99812.56;;;7.96;100.00
11523;BME280;40093;43.224;27.910;2023-02-04T10:28:42;99806.28;;;7.95;100.00
11523;BME280;40093;43.224;27.910;2023-02-04T10:31:31;99809.56;;;7.42;100.00
11523;BME280;40093;43.224;27.910;2023-02-04T10:34:11;99798.91;;;7.08;100.00
11523;BME280;40093;43.224;27.910;2023-02-04T10:36:40;99797.09;;;6.89;100.00
11523;BME280;40093;43.224;27.910;2023-02-04T10:39:13;99798.91;;;7.08;100.00
11523;BME280;40093;43.224;27.910;2023-02-04T10:41:46;99796.66;;;7.13;100.00
11523;BME280;40093;43.224;27.910;2023-02-04T10:44:15;99788.31;;;7.06;100.00
11523;BME280;40093;43.224;27.910;2023-02-04T10:46:42;99793.69;;;7.25;100.00
11523;BME280;40093;43.224;27.910;2023-02-04T10:49:17;99789.72;;;7.22;100.00
11523;BME280;40093;43.224;27.910;2023-02-04T10:51:45;99783.75;;;7.43;100.00
11523;BME280;40093;43.224;27.910;2023-02-04T10:54:16;99792.38;;;7.45;100.00
11523;BME280;40093;43.224;27.910;2023-02-04T10:57:16;99785.19;;;7.63;100.00
11523;BME280;40093;43.224;27.910;2023-02-04T10:59:43;99783.22;;;7.63;100.00
11523;BME280;40093;43.224;27.910;2023-02-04T11:02:32;99781.25;;;7.60;100.00
11523;BME280;40093;43.224;27.910;2023-02-04T11:05:00;99771.66;;;7.77;100.00
11523;BME280;40093;43.224;27.910;2023-02-04T11:07:28;99768.81;;;7.70;100.00
11523;BME280;40093;43.224;27.910;2023-02-04T11:09:56;99780.16;;;7.68;100.00
11523;BME280;40093;43.224;27.910;2023-02-04T11:12:36;99769.63;;;7.37;100.00
11523;BME280;40093;43.224;27.910;2023-02-04T11:15:04;99764.59;;;7.43;100.00
11523;BME280;40093;43.224;27.910;2023-02-04T11:17:33;99761.22;;;7.53;100.00
11523;BME280;40093;43.224;27.910;2023-02-04T11:20:13;99764.91;;;7.38;100.00
11523;BME280;40093;43.224;27.910;2023-02-04T11:22:42;99758.94;;;7.58;100.00
11523;BME280;40093;43.224;27.910;2023-02-04T11:25:33;99765.41;;;7.47;100.00
11523;BME280;40093;43.224;27.910;2023-02-04T11:28:00;99764.75;;;7.57;100.00
11523;BME280;40093;43.224;27.910;2023-02-04T11:30:38;99760.19;;;7.68;100.00
11523;BME280;40093;43.224;27.910;2023-02-04T11:33:19;99767.66;;;7.67;100.00
11523;BME280;40093;43.224;27.910;2023-02-04T11:35:59;99757.66;;;7.20;100.00
11523;BME280;40093;43.224;27.910;2023-02-04T11:38:30;99766.88;;;7.08;100.00
11523;BME280;40093;43.224;27.910;2023-02-04T11:40:59;99760.44;;;7.23;100.00
11523;BME280;40093;43.224;27.910;2023-02-04T11:43:26;99757.53;;;7.13;100.00
11523;BME280;40093;43.224;27.910;2023-02-04T11:46:04;99748.69;;;7.22;100.00
11523;BME280;40093;43.224;27.910;2023-02-04T11:48:35;99751.81;;;6.95;100.00
11523;BME280;40093;43.224;27.910;2023-02-04T11:51:10;99753.63;;;7.10;100.00
11523;BME280;40093;43.224;27.910;2023-02-04T11:53:38;99761.53;;;7.19;100.00
11523;BME280;40093;43.224;27.910;2023-02-04T11:56:15;99755.78;;;6.98;100.00
11523;BME280;40093;43.224;27.910;2023-02-04T11:58:42;99757.53;;;7.09;100.00
11523;BME280;40093;43.224;27.910;2023-02-04T12:01:16;99750.31;;;6.98;100.00
11523;BME280;40093;43.224;27.910;2023-02-04T12:03:45;99749.38;;;7.16;100.00
11523;BME280;40093;43.224;27.910;2023-02-04T12:06:20;99750.72;;;7.29;100.00
11523;BME280;40093;43.224;27.910;2023-02-04T12:08:47;99746.34;;;7.21;100.00
11523;BME280;40093;43.224;27.910;2023-02-04T12:11:25;99751.28;;;7.12;100.00
11523;BME280;40093;43.224;27.910;2023-02-04T12:13:57;99744.25;;;7.11;100.00
11523;BME280;40093;43.224;27.910;2023-02-04T12:16:24;99746.06;;;7.00;100.00
11523;BME280;40093;43.224;27.910;2023-02-04T12:18:51;99741.94;;;7.13;100.00
11523;BME280;40093;43.224;27.910;2023-02-04T12:21:19;99747.06;;;7.18;100.00
11523;BME280;40093;43.224;27.910;2023-02-04T12:23:46;99743.19;;;7.19;100.00
11523;BME280;40093;43.224;27.910;2023-02-04T12:26:13;99741.44;;;7.37;100.00
11523;BME280;40093;43.224;27.910;2023-02-04T12:28:41;99742.75;;;7.46;100.00
11523;BME280;40093;43.224;27.910;2023-02-04T12:31:08;99748.38;;;7.60;100.00
11523;BME280;40093;43.224;27.910;2023-02-04T12:33:36;99752.84;;;7.72;100.00
11523;BME280;40093;43.224;27.910;2023-02-04T12:36:03;99755.06;;;7.63;100.00
11523;BME280;40093;43.224;27.910;2023-02-04T12:38:30;99755.88;;;7.67;100.00
11523;BME280;40093;43.224;27.910;2023-02-04T12:40:58;99728.25;;;7.46;100.00
11523;BME280;40093;43.224;27.910;2023-02-04T12:43:25;99757.88;;;7.37;100.00
11523;BME280;40093;43.224;27.910;2023-02-04T12:45:54;99757.81;;;7.30;100.00
11523;BME280;40093;43.224;27.910;2023-02-04T12:48:21;99761.66;;;7.29;100.00
11523;BME280;40093;43.224;27.910;2023-02-04T12:50:48;99765.78;;;7.42;100.00
11523;BME280;40093;43.224;27.910;2023-02-04T12:53:16;99761.72;;;7.32;100.00
11523;BME280;40093;43.224;27.910;2023-02-04T12:55:43;99760.66;;;7.40;100.00